메인 페이지
METAR-TAF:

METAR-TAF

공항 :

McAlester, 오클라호마, 미국

위도: 34-52-56N, 경도: 095-46-59W, 고도: 234m

현재 날씨관측

예보는 26분 전, 18:53시(UTC)에 발표되었습니다.
여러 방향의 바람 4kt
온도 23°C
습도 27%
기압 1015 hPa
시정: 16.1km
고도 10000ft 상공 구름 조금

METAR: KMLC 191853Z AUTO VRB04KT 10SM FEW100 23/03 A2996 RMK AO2 SLP140 T02330028

시각: 13:19 (19:19 UTC)

예보

예보는 1 시간 59분 전, 17:20시(UTC)에 발표되었습니다.
예보 대상 시간: 19일 18시부터 20일 18시까지 (UTC)
동남동5kt
시정: 10km
맑음
20일 1300시부터 (UTC)
12kt, 순간 최대 풍속 18kt
시정: 10km
고도 2500ft 상공 구름 보통
고도 5000ft 상공 구름 많음

TAF: KMLC 191720Z 1918/2018 11005KT P6SM SKC FM201300 17012G18KT P6SM SCT025 BKN050

4,000개 이상의 공항 관측 자료 및 예보 (METAR 및 TAF 보고).

지도상에서 검색 가능한 기상관측소가 노란 점과 빨간 점으로 표시되어 있습니다.

기상관측소 명을 보려면 표시 위로 마우스를 이동하세요.

날씨 관측과 예보를 보려면 클릭하세요.

지도 변경 : 확대하려면 엑스 표시가 있는 녹색 버튼, 축소하려면 빼기 표시가 있는 녹색 버튼, 다음 페이지의 지도를 보려면 녹색 화살표를 클릭하세요.


METAR-TAF: